Tamanrasset, Algeria
Current Conditions -  °F | °C
As of 12:30 AM on Monday 22 Dec 2014 (Local Time) from DAAT Reporting Station
Clear Clear  
Wind Chill:   Ceiling: Unl
Heat Index:   Visibility: 6mi
Dew Point: -14°   Wind: 15mph
Humidity: 19%   Direction: 80°E
Pressure: 30.24"   Gusts: NA
Location:  22.78°N, 5.52°E
Report Text: DAAT 212330Z 08013KT CAVOK 09/M14 Q1024
Loading
Personal Weather Stations






























Interactive Weather Map New forecast layout! Learn more

10-Day Weather Forecast

Advertisements
Track Severe Weather on mobile